sensor_id;sensor_type;location;lat;lon;timestamp;temperature;humidity
7174;DHT22;3628;48.654;8.932;2023-07-29T00:00:49;17.80;99.90
7174;DHT22;3628;48.654;8.932;2023-07-29T00:03:15;17.80;99.90
7174;DHT22;3628;48.654;8.932;2023-07-29T00:05:40;17.80;99.90
7174;DHT22;3628;48.654;8.932;2023-07-29T00:08:06;17.90;99.90
7174;DHT22;3628;48.654;8.932;2023-07-29T00:10:36;17.90;99.90
7174;DHT22;3628;48.654;8.932;2023-07-29T00:13:02;17.90;99.90
7174;DHT22;3628;48.654;8.932;2023-07-29T00:15:28;17.90;99.90
7174;DHT22;3628;48.654;8.932;2023-07-29T00:17:53;18.00;99.90
7174;DHT22;3628;48.654;8.932;2023-07-29T00:20:19;17.90;99.90
7174;DHT22;3628;48.654;8.932;2023-07-29T00:22:44;17.90;99.90
7174;DHT22;3628;48.654;8.932;2023-07-29T00:25:10;17.90;99.90
7174;DHT22;3628;48.654;8.932;2023-07-29T00:27:35;17.90;99.90
7174;DHT22;3628;48.654;8.932;2023-07-29T00:30:01;17.90;99.90
7174;DHT22;3628;48.654;8.932;2023-07-29T00:32:30;17.80;99.90
7174;DHT22;3628;48.654;8.932;2023-07-29T00:34:56;17.70;99.90
7174;DHT22;3628;48.654;8.932;2023-07-29T00:37:21;17.70;99.90
7174;DHT22;3628;48.654;8.932;2023-07-29T00:39:47;17.70;99.90
7174;DHT22;3628;48.654;8.932;2023-07-29T00:42:13;17.80;99.90
7174;DHT22;3628;48.654;8.932;2023-07-29T00:44:38;17.80;99.90
7174;DHT22;3628;48.654;8.932;2023-07-29T00:47:05;17.80;99.90
7174;DHT22;3628;48.654;8.932;2023-07-29T00:49:31;17.80;99.90
7174;DHT22;3628;48.654;8.932;2023-07-29T00:51:56;17.90;99.90
7174;DHT22;3628;48.654;8.932;2023-07-29T00:54:22;17.90;99.90
7174;DHT22;3628;48.654;8.932;2023-07-29T00:56:48;17.90;99.90
7174;DHT22;3628;48.654;8.932;2023-07-29T00:59:14;17.90;99.90
7174;DHT22;3628;48.654;8.932;2023-07-29T01:01:39;17.90;99.90
7174;DHT22;3628;48.654;8.932;2023-07-29T01:04:05;17.90;99.90
7174;DHT22;3628;48.654;8.932;2023-07-29T01:09:31;17.90;99.90
7174;DHT22;3628;48.654;8.932;2023-07-29T01:12:14;17.90;99.90
7174;DHT22;3628;48.654;8.932;2023-07-29T01:14:54;17.90;99.90
7174;DHT22;3628;48.654;8.932;2023-07-29T01:17:23;17.90;99.90
7174;DHT22;3628;48.654;8.932;2023-07-29T01:19:59;17.80;99.90
7174;DHT22;3628;48.654;8.932;2023-07-29T01:22:26;17.80;99.90
7174;DHT22;3628;48.654;8.932;2023-07-29T01:24:53;17.70;99.90
7174;DHT22;3628;48.654;8.932;2023-07-29T01:27:18;17.70;99.90
7174;DHT22;3628;48.654;8.932;2023-07-29T01:29:44;17.80;99.90
7174;DHT22;3628;48.654;8.932;2023-07-29T01:32:14;17.80;99.90
7174;DHT22;3628;48.654;8.932;2023-07-29T01:34:48;17.80;99.90
7174;DHT22;3628;48.654;8.932;2023-07-29T01:37:19;17.80;99.90
7174;DHT22;3628;48.654;8.932;2023-07-29T01:39:47;17.80;99.90
7174;DHT22;3628;48.654;8.932;2023-07-29T01:42:13;17.80;99.90
7174;DHT22;3628;48.654;8.932;2023-07-29T01:44:39;17.80;99.90
7174;DHT22;3628;48.654;8.932;2023-07-29T01:47:07;17.80;99.90
7174;DHT22;3628;48.654;8.932;2023-07-29T01:49:33;17.70;99.90
7174;DHT22;3628;48.654;8.932;2023-07-29T01:51:59;17.70;99.90
7174;DHT22;3628;48.654;8.932;2023-07-29T01:54:24;17.70;99.90
7174;DHT22;3628;48.654;8.932;2023-07-29T01:56:50;17.70;99.90
7174;DHT22;3628;48.654;8.932;2023-07-29T01:59:16;17.60;99.90
7174;DHT22;3628;48.654;8.932;2023-07-29T02:01:42;17.60;99.90
7174;DHT22;3628;48.654;8.932;2023-07-29T02:04:08;17.60;99.90
7174;DHT22;3628;48.654;8.932;2023-07-29T02:06:34;17.60;99.90
7174;DHT22;3628;48.654;8.932;2023-07-29T02:08:59;17.60;99.90
7174;DHT22;3628;48.654;8.932;2023-07-29T02:11:25;17.50;99.90
7174;DHT22;3628;48.654;8.932;2023-07-29T02:13:54;17.50;99.90
7174;DHT22;3628;48.654;8.932;2023-07-29T02:16:20;17.50;99.90
7174;DHT22;3628;48.654;8.932;2023-07-29T02:18:46;17.40;99.90
7174;DHT22;3628;48.654;8.932;2023-07-29T02:21:11;17.40;99.90
7174;DHT22;3628;48.654;8.932;2023-07-29T02:23:37;17.40;99.90
7174;DHT22;3628;48.654;8.932;2023-07-29T02:26:02;17.40;99.90
7174;DHT22;3628;48.654;8.932;2023-07-29T02:28:28;17.30;99.90
7174;DHT22;3628;48.654;8.932;2023-07-29T02:31:16;17.30;99.90
7174;DHT22;3628;48.654;8.932;2023-07-29T02:33:42;17.30;99.90
7174;DHT22;3628;48.654;8.932;2023-07-29T02:36:08;17.20;99.90
7174;DHT22;3628;48.654;8.932;2023-07-29T02:38:34;17.30;99.90
7174;DHT22;3628;48.654;8.932;2023-07-29T02:40:59;17.30;99.90
7174;DHT22;3628;48.654;8.932;2023-07-29T02:43:25;17.30;99.90
7174;DHT22;3628;48.654;8.932;2023-07-29T02:45:50;17.30;99.90
7174;DHT22;3628;48.654;8.932;2023-07-29T02:48:16;17.30;99.90
7174;DHT22;3628;48.654;8.932;2023-07-29T02:50:41;17.30;99.90
7174;DHT22;3628;48.654;8.932;2023-07-29T02:53:07;17.20;99.90
7174;DHT22;3628;48.654;8.932;2023-07-29T02:55:32;17.20;99.90
7174;DHT22;3628;48.654;8.932;2023-07-29T02:57:58;17.20;99.90
7174;DHT22;3628;48.654;8.932;2023-07-29T03:00:23;17.20;99.90
7174;DHT22;3628;48.654;8.932;2023-07-29T03:02:50;17.20;99.90
7174;DHT22;3628;48.654;8.932;2023-07-29T03:05:16;17.20;99.90
7174;DHT22;3628;48.654;8.932;2023-07-29T03:07:41;17.20;99.90
7174;DHT22;3628;48.654;8.932;2023-07-29T03:10:07;17.20;99.90
7174;DHT22;3628;48.654;8.932;2023-07-29T03:12:33;17.20;99.90
7174;DHT22;3628;48.654;8.932;2023-07-29T03:14:58;17.20;99.90
7174;DHT22;3628;48.654;8.932;2023-07-29T03:17:25;17.20;99.90
7174;DHT22;3628;48.654;8.932;2023-07-29T03:19:51;17.20;99.90
7174;DHT22;3628;48.654;8.932;2023-07-29T03:22:17;17.30;99.90
7174;DHT22;3628;48.654;8.932;2023-07-29T03:24:42;17.20;99.90
7174;DHT22;3628;48.654;8.932;2023-07-29T03:27:08;17.20;99.90
7174;DHT22;3628;48.654;8.932;2023-07-29T03:29:35;17.30;99.90
7174;DHT22;3628;48.654;8.932;2023-07-29T03:32:01;17.30;99.90
7174;DHT22;3628;48.654;8.932;2023-07-29T03:34:26;17.30;99.90
7174;DHT22;3628;48.654;8.932;2023-07-29T03:36:52;17.30;99.90
7174;DHT22;3628;48.654;8.932;2023-07-29T03:39:17;17.40;99.90
7174;DHT22;3628;48.654;8.932;2023-07-29T03:41:43;17.40;99.90
7174;DHT22;3628;48.654;8.932;2023-07-29T03:44:08;17.40;99.90
7174;DHT22;3628;48.654;8.932;2023-07-29T03:46:34;17.50;99.90
7174;DHT22;3628;48.654;8.932;2023-07-29T03:49:00;17.50;99.90
7174;DHT22;3628;48.654;8.932;2023-07-29T03:51:25;17.40;99.90
7174;DHT22;3628;48.654;8.932;2023-07-29T03:53:51;17.40;99.90
7174;DHT22;3628;48.654;8.932;2023-07-29T03:56:16;17.40;99.90
7174;DHT22;3628;48.654;8.932;2023-07-29T03:58:43;17.40;99.90
7174;DHT22;3628;48.654;8.932;2023-07-29T04:01:09;17.50;99.90
7174;DHT22;3628;48.654;8.932;2023-07-29T04:03:34;17.40;99.90
7174;DHT22;3628;48.654;8.932;2023-07-29T04:06:00;17.40;99.90
7174;DHT22;3628;48.654;8.932;2023-07-29T04:08:26;17.40;99.90
7174;DHT22;3628;48.654;8.932;2023-07-29T04:10:51;17.40;99.90
7174;DHT22;3628;48.654;8.932;2023-07-29T04:13:17;17.40;99.90
7174;DHT22;3628;48.654;8.932;2023-07-29T04:15:43;17.40;99.90
7174;DHT22;3628;48.654;8.932;2023-07-29T04:18:08;17.40;99.90
7174;DHT22;3628;48.654;8.932;2023-07-29T04:20:34;17.40;99.90
7174;DHT22;3628;48.654;8.932;2023-07-29T04:22:59;17.40;99.90
7174;DHT22;3628;48.654;8.932;2023-07-29T04:25:25;17.40;99.90
7174;DHT22;3628;48.654;8.932;2023-07-29T04:27:50;17.40;99.90
7174;DHT22;3628;48.654;8.932;2023-07-29T04:30:16;17.40;99.90
7174;DHT22;3628;48.654;8.932;2023-07-29T04:32:42;17.40;99.90
7174;DHT22;3628;48.654;8.932;2023-07-29T04:35:08;17.50;99.90
7174;DHT22;3628;48.654;8.932;2023-07-29T04:37:34;17.40;99.90
7174;DHT22;3628;48.654;8.932;2023-07-29T04:40:00;17.30;99.90
7174;DHT22;3628;48.654;8.932;2023-07-29T04:42:25;17.30;99.90
7174;DHT22;3628;48.654;8.932;2023-07-29T04:44:51;17.30;99.90
7174;DHT22;3628;48.654;8.932;2023-07-29T04:47:16;17.30;99.90
7174;DHT22;3628;48.654;8.932;2023-07-29T04:49:42;17.30;99.90
7174;DHT22;3628;48.654;8.932;2023-07-29T04:52:07;17.20;99.90
7174;DHT22;3628;48.654;8.932;2023-07-29T04:54:33;17.20;99.90
7174;DHT22;3628;48.654;8.932;2023-07-29T04:56:59;17.30;99.90
7174;DHT22;3628;48.654;8.932;2023-07-29T04:59:24;17.30;99.90
7174;DHT22;3628;48.654;8.932;2023-07-29T05:01:50;17.30;99.90
7174;DHT22;3628;48.654;8.932;2023-07-29T05:04:15;17.40;99.90
7174;DHT22;3628;48.654;8.932;2023-07-29T05:06:41;17.50;99.90
7174;DHT22;3628;48.654;8.932;2023-07-29T05:09:17;17.50;99.90
7174;DHT22;3628;48.654;8.932;2023-07-29T05:11:43;17.50;99.90
7174;DHT22;3628;48.654;8.932;2023-07-29T05:14:16;17.60;99.90
7174;DHT22;3628;48.654;8.932;2023-07-29T05:16:42;17.70;99.90
7174;DHT22;3628;48.654;8.932;2023-07-29T05:19:08;17.70;99.90
7174;DHT22;3628;48.654;8.932;2023-07-29T05:21:34;17.70;99.90
7174;DHT22;3628;48.654;8.932;2023-07-29T05:23:59;17.80;99.90
7174;DHT22;3628;48.654;8.932;2023-07-29T05:26:25;17.90;99.90
7174;DHT22;3628;48.654;8.932;2023-07-29T05:28:51;18.00;99.90
7174;DHT22;3628;48.654;8.932;2023-07-29T05:31:16;18.00;99.90
7174;DHT22;3628;48.654;8.932;2023-07-29T05:33:42;18.00;99.90
7174;DHT22;3628;48.654;8.932;2023-07-29T05:36:07;18.10;99.90
7174;DHT22;3628;48.654;8.932;2023-07-29T05:38:33;18.10;99.90
7174;DHT22;3628;48.654;8.932;2023-07-29T05:40:58;18.10;99.90
7174;DHT22;3628;48.654;8.932;2023-07-29T05:43:24;18.10;99.90
7174;DHT22;3628;48.654;8.932;2023-07-29T05:45:50;18.20;99.90
7174;DHT22;3628;48.654;8.932;2023-07-29T05:48:16;18.30;99.90
7174;DHT22;3628;48.654;8.932;2023-07-29T05:50:42;18.40;99.90
7174;DHT22;3628;48.654;8.932;2023-07-29T05:53:07;18.50;99.90
7174;DHT22;3628;48.654;8.932;2023-07-29T05:55:33;18.60;99.90
7174;DHT22;3628;48.654;8.932;2023-07-29T05:57:58;18.70;99.90
7174;DHT22;3628;48.654;8.932;2023-07-29T06:00:24;18.80;99.90
7174;DHT22;3628;48.654;8.932;2023-07-29T06:02:49;18.90;99.90
7174;DHT22;3628;48.654;8.932;2023-07-29T06:05:15;19.00;99.90
7174;DHT22;3628;48.654;8.932;2023-07-29T06:07:41;19.00;99.90
7174;DHT22;3628;48.654;8.932;2023-07-29T06:10:13;19.20;99.90
7174;DHT22;3628;48.654;8.932;2023-07-29T06:12:39;19.30;99.90
7174;DHT22;3628;48.654;8.932;2023-07-29T06:15:05;19.40;99.90
7174;DHT22;3628;48.654;8.932;2023-07-29T06:17:31;19.50;99.90
7174;DHT22;3628;48.654;8.932;2023-07-29T06:19:56;19.60;99.90
7174;DHT22;3628;48.654;8.932;2023-07-29T06:22:22;19.70;99.90
7174;DHT22;3628;48.654;8.932;2023-07-29T06:24:47;19.70;99.90
7174;DHT22;3628;48.654;8.932;2023-07-29T06:27:13;19.70;99.90
7174;DHT22;3628;48.654;8.932;2023-07-29T06:29:38;19.70;99.90
7174;DHT22;3628;48.654;8.932;2023-07-29T06:32:04;19.60;99.90
7174;DHT22;3628;48.654;8.932;2023-07-29T06:34:30;19.50;99.90
7174;DHT22;3628;48.654;8.932;2023-07-29T06:36:55;19.40;99.90
7174;DHT22;3628;48.654;8.932;2023-07-29T06:39:21;19.20;99.90
7174;DHT22;3628;48.654;8.932;2023-07-29T06:41:47;19.10;99.90
7174;DHT22;3628;48.654;8.932;2023-07-29T06:44:12;19.00;99.90
7174;DHT22;3628;48.654;8.932;2023-07-29T06:46:38;18.90;99.90
7174;DHT22;3628;48.654;8.932;2023-07-29T06:49:04;18.80;99.90
7174;DHT22;3628;48.654;8.932;2023-07-29T06:51:30;18.70;99.90
7174;DHT22;3628;48.654;8.932;2023-07-29T06:53:57;18.60;99.90
7174;DHT22;3628;48.654;8.932;2023-07-29T06:56:23;18.50;99.90
7174;DHT22;3628;48.654;8.932;2023-07-29T06:58:49;18.50;99.90
7174;DHT22;3628;48.654;8.932;2023-07-29T07:01:14;18.40;99.90
7174;DHT22;3628;48.654;8.932;2023-07-29T07:03:40;18.40;99.90
7174;DHT22;3628;48.654;8.932;2023-07-29T07:06:05;18.30;99.90
7174;DHT22;3628;48.654;8.932;2023-07-29T07:08:31;18.30;99.90
7174;DHT22;3628;48.654;8.932;2023-07-29T07:10:56;18.30;99.90
7174;DHT22;3628;48.654;8.932;2023-07-29T07:13:22;18.30;99.90
7174;DHT22;3628;48.654;8.932;2023-07-29T07:15:48;18.30;99.90
7174;DHT22;3628;48.654;8.932;2023-07-29T07:18:13;18.30;99.90
7174;DHT22;3628;48.654;8.932;2023-07-29T07:20:39;18.30;99.90
7174;DHT22;3628;48.654;8.932;2023-07-29T07:23:04;18.40;99.90
7174;DHT22;3628;48.654;8.932;2023-07-29T07:25:36;18.50;99.90
7174;DHT22;3628;48.654;8.932;2023-07-29T07:28:02;18.60;99.90
7174;DHT22;3628;48.654;8.932;2023-07-29T07:30:27;18.70;99.90
7174;DHT22;3628;48.654;8.932;2023-07-29T07:32:53;18.90;99.90
7174;DHT22;3628;48.654;8.932;2023-07-29T07:35:18;18.90;99.90
7174;DHT22;3628;48.654;8.932;2023-07-29T07:37:44;18.90;99.90
7174;DHT22;3628;48.654;8.932;2023-07-29T07:40:10;19.00;99.90
7174;DHT22;3628;48.654;8.932;2023-07-29T07:42:36;19.10;99.90
7174;DHT22;3628;48.654;8.932;2023-07-29T07:45:02;19.20;99.90
7174;DHT22;3628;48.654;8.932;2023-07-29T07:47:27;19.30;99.90
7174;DHT22;3628;48.654;8.932;2023-07-29T07:49:53;19.50;99.90
7174;DHT22;3628;48.654;8.932;2023-07-29T07:52:18;19.60;99.90
7174;DHT22;3628;48.654;8.932;2023-07-29T07:54:44;19.70;99.90
7174;DHT22;3628;48.654;8.932;2023-07-29T07:57:09;19.80;99.90
7174;DHT22;3628;48.654;8.932;2023-07-29T07:59:35;20.00;99.90
7174;DHT22;3628;48.654;8.932;2023-07-29T08:02:00;20.10;99.90
7174;DHT22;3628;48.654;8.932;2023-07-29T08:04:26;20.20;99.90
7174;DHT22;3628;48.654;8.932;2023-07-29T08:06:52;20.30;99.90
7174;DHT22;3628;48.654;8.932;2023-07-29T08:09:17;20.40;99.90
7174;DHT22;3628;48.654;8.932;2023-07-29T08:11:43;20.50;99.90
7174;DHT22;3628;48.654;8.932;2023-07-29T08:14:08;20.70;99.90
7174;DHT22;3628;48.654;8.932;2023-07-29T08:16:34;20.80;99.90
7174;DHT22;3628;48.654;8.932;2023-07-29T08:18:59;21.00;99.90
7174;DHT22;3628;48.654;8.932;2023-07-29T08:21:26;21.00;99.90
7174;DHT22;3628;48.654;8.932;2023-07-29T08:23:52;21.00;99.90
7174;DHT22;3628;48.654;8.932;2023-07-29T08:26:17;21.20;99.90
7174;DHT22;3628;48.654;8.932;2023-07-29T08:28:43;21.30;99.90
7174;DHT22;3628;48.654;8.932;2023-07-29T08:31:09;21.50;99.90
7174;DHT22;3628;48.654;8.932;2023-07-29T08:33:34;21.60;99.90
7174;DHT22;3628;48.654;8.932;2023-07-29T08:36:01;21.90;99.90
7174;DHT22;3628;48.654;8.932;2023-07-29T08:38:26;22.00;99.90
7174;DHT22;3628;48.654;8.932;2023-07-29T08:46:20;22.30;99.90
7174;DHT22;3628;48.654;8.932;2023-07-29T08:48:45;22.30;99.90
7174;DHT22;3628;48.654;8.932;2023-07-29T08:51:11;22.20;99.90
7174;DHT22;3628;48.654;8.932;2023-07-29T08:53:38;22.30;99.90
7174;DHT22;3628;48.654;8.932;2023-07-29T08:56:04;22.20;99.90
7174;DHT22;3628;48.654;8.932;2023-07-29T08:58:31;22.10;99.90
7174;DHT22;3628;48.654;8.932;2023-07-29T09:00:56;22.10;99.90
7174;DHT22;3628;48.654;8.932;2023-07-29T09:03:22;22.10;99.90
7174;DHT22;3628;48.654;8.932;2023-07-29T09:05:48;22.20;99.90
7174;DHT22;3628;48.654;8.932;2023-07-29T09:08:14;22.30;99.90
7174;DHT22;3628;48.654;8.932;2023-07-29T09:10:40;22.50;99.90
7174;DHT22;3628;48.654;8.932;2023-07-29T09:13:06;22.90;99.90
7174;DHT22;3628;48.654;8.932;2023-07-29T09:15:34;23.30;99.90
7174;DHT22;3628;48.654;8.932;2023-07-29T09:18:15;23.70;99.90
7174;DHT22;3628;48.654;8.932;2023-07-29T09:20:40;24.20;99.90
7174;DHT22;3628;48.654;8.932;2023-07-29T09:23:10;24.50;99.90
7174;DHT22;3628;48.654;8.932;2023-07-29T09:25:37;24.60;99.90
7174;DHT22;3628;48.654;8.932;2023-07-29T09:28:13;24.60;99.90
7174;DHT22;3628;48.654;8.932;2023-07-29T09:30:46;24.70;99.90
7174;DHT22;3628;48.654;8.932;2023-07-29T09:33:11;24.90;99.90
7174;DHT22;3628;48.654;8.932;2023-07-29T09:35:38;24.90;99.90
7174;DHT22;3628;48.654;8.932;2023-07-29T09:38:07;25.00;99.90
7174;DHT22;3628;48.654;8.932;2023-07-29T09:40:36;25.10;99.90
7174;DHT22;3628;48.654;8.932;2023-07-29T09:43:02;25.30;99.90
7174;DHT22;3628;48.654;8.932;2023-07-29T09:45:29;25.30;99.90
7174;DHT22;3628;48.654;8.932;2023-07-29T09:47:57;25.20;99.90
7174;DHT22;3628;48.654;8.932;2023-07-29T09:50:26;25.00;99.90
7174;DHT22;3628;48.654;8.932;2023-07-29T09:52:53;24.90;99.90
7174;DHT22;3628;48.654;8.932;2023-07-29T09:55:21;24.90;99.90
7174;DHT22;3628;48.654;8.932;2023-07-29T09:57:47;24.70;99.90
7174;DHT22;3628;48.654;8.932;2023-07-29T10:00:13;24.60;99.90
7174;DHT22;3628;48.654;8.932;2023-07-29T10:02:42;24.60;99.90
7174;DHT22;3628;48.654;8.932;2023-07-29T10:05:09;24.50;99.90
7174;DHT22;3628;48.654;8.932;2023-07-29T10:07:39;24.50;99.90
7174;DHT22;3628;48.654;8.932;2023-07-29T10:10:06;24.50;99.90
7174;DHT22;3628;48.654;8.932;2023-07-29T10:12:33;24.70;99.90
7174;DHT22;3628;48.654;8.932;2023-07-29T10:15:07;24.60;99.90
7174;DHT22;3628;48.654;8.932;2023-07-29T10:17:37;24.20;99.90
7174;DHT22;3628;48.654;8.932;2023-07-29T10:20:05;24.20;99.90
7174;DHT22;3628;48.654;8.932;2023-07-29T10:22:42;24.50;99.90
7174;DHT22;3628;48.654;8.932;2023-07-29T10:25:19;24.50;99.90
7174;DHT22;3628;48.654;8.932;2023-07-29T10:27:53;24.60;99.90
7174;DHT22;3628;48.654;8.932;2023-07-29T10:30:19;24.80;99.90
7174;DHT22;3628;48.654;8.932;2023-07-29T10:32:45;25.10;99.90
7174;DHT22;3628;48.654;8.932;2023-07-29T10:35:12;25.20;99.90
7174;DHT22;3628;48.654;8.932;2023-07-29T10:37:39;25.40;99.90
7174;DHT22;3628;48.654;8.932;2023-07-29T10:40:09;25.30;99.90
7174;DHT22;3628;48.654;8.932;2023-07-29T10:42:37;25.10;99.90
7174;DHT22;3628;48.654;8.932;2023-07-29T10:45:20;25.10;99.90
7174;DHT22;3628;48.654;8.932;2023-07-29T10:47:46;25.40;99.90
7174;DHT22;3628;48.654;8.932;2023-07-29T10:50:20;25.40;99.90
7174;DHT22;3628;48.654;8.932;2023-07-29T10:52:52;25.30;99.90
7174;DHT22;3628;48.654;8.932;2023-07-29T10:57:49;25.30;99.90
7174;DHT22;3628;48.654;8.932;2023-07-29T11:00:15;25.50;99.90
7174;DHT22;3628;48.654;8.932;2023-07-29T11:02:41;25.70;99.90
7174;DHT22;3628;48.654;8.932;2023-07-29T11:05:15;25.60;99.90
7174;DHT22;3628;48.654;8.932;2023-07-29T11:07:45;25.70;99.90
7174;DHT22;3628;48.654;8.932;2023-07-29T11:10:11;26.00;99.90
7174;DHT22;3628;48.654;8.932;2023-07-29T11:17:39;25.90;99.90
7174;DHT22;3628;48.654;8.932;2023-07-29T11:20:05;25.70;99.90
7174;DHT22;3628;48.654;8.932;2023-07-29T11:22:33;25.70;99.90
7174;DHT22;3628;48.654;8.932;2023-07-29T11:24:58;25.70;99.90
7174;DHT22;3628;48.654;8.932;2023-07-29T11:27:24;26.00;99.90
7174;DHT22;3628;48.654;8.932;2023-07-29T11:29:50;26.40;99.90
7174;DHT22;3628;48.654;8.932;2023-07-29T11:32:16;26.50;99.90
7174;DHT22;3628;48.654;8.932;2023-07-29T11:34:42;26.50;99.90
7174;DHT22;3628;48.654;8.932;2023-07-29T11:37:10;26.40;99.90
7174;DHT22;3628;48.654;8.932;2023-07-29T11:39:42;26.30;99.90
7174;DHT22;3628;48.654;8.932;2023-07-29T11:42:11;26.40;99.90
7174;DHT22;3628;48.654;8.932;2023-07-29T11:44:37;26.40;99.90
7174;DHT22;3628;48.654;8.932;2023-07-29T11:47:10;26.60;99.90
7174;DHT22;3628;48.654;8.932;2023-07-29T11:49:38;26.60;99.90
7174;DHT22;3628;48.654;8.932;2023-07-29T11:52:06;26.60;99.90
7174;DHT22;3628;48.654;8.932;2023-07-29T11:54:32;26.70;99.90
7174;DHT22;3628;48.654;8.932;2023-07-29T11:56:58;26.70;99.90
7174;DHT22;3628;48.654;8.932;2023-07-29T11:59:24;26.80;99.90
7174;DHT22;3628;48.654;8.932;2023-07-29T12:01:50;26.90;99.90
7174;DHT22;3628;48.654;8.932;2023-07-29T12:04:16;26.90;99.90
7174;DHT22;3628;48.654;8.932;2023-07-29T12:06:42;27.00;99.90
7174;DHT22;3628;48.654;8.932;2023-07-29T12:09:07;26.70;99.90
7174;DHT22;3628;48.654;8.932;2023-07-29T12:11:34;26.50;99.90
7174;DHT22;3628;48.654;8.932;2023-07-29T12:14:00;26.50;99.90
7174;DHT22;3628;48.654;8.932;2023-07-29T12:16:26;26.60;99.90
7174;DHT22;3628;48.654;8.932;2023-07-29T12:18:51;26.40;99.90
7174;DHT22;3628;48.654;8.932;2023-07-29T12:21:18;26.20;99.90
7174;DHT22;3628;48.654;8.932;2023-07-29T12:23:44;26.30;99.90
7174;DHT22;3628;48.654;8.932;2023-07-29T12:26:10;26.40;99.90
7174;DHT22;3628;48.654;8.932;2023-07-29T12:28:35;26.50;99.90
7174;DHT22;3628;48.654;8.932;2023-07-29T12:31:01;26.60;99.90
7174;DHT22;3628;48.654;8.932;2023-07-29T12:33:31;26.80;99.90
7174;DHT22;3628;48.654;8.932;2023-07-29T12:35:57;26.70;99.90
7174;DHT22;3628;48.654;8.932;2023-07-29T12:38:22;26.70;99.90
7174;DHT22;3628;48.654;8.932;2023-07-29T12:40:48;26.80;99.90
7174;DHT22;3628;48.654;8.932;2023-07-29T12:43:13;27.00;99.90
7174;DHT22;3628;48.654;8.932;2023-07-29T12:45:39;26.80;99.90
7174;DHT22;3628;48.654;8.932;2023-07-29T12:48:07;26.80;99.90
7174;DHT22;3628;48.654;8.932;2023-07-29T12:50:32;26.60;99.90
7174;DHT22;3628;48.654;8.932;2023-07-29T12:52:58;26.50;99.90
7174;DHT22;3628;48.654;8.932;2023-07-29T12:55:23;26.40;99.90
7174;DHT22;3628;48.654;8.932;2023-07-29T12:57:50;26.40;99.90
7174;DHT22;3628;48.654;8.932;2023-07-29T13:00:15;26.40;99.90
7174;DHT22;3628;48.654;8.932;2023-07-29T13:02:41;26.20;99.90
7174;DHT22;3628;48.654;8.932;2023-07-29T13:05:09;26.10;99.90
7174;DHT22;3628;48.654;8.932;2023-07-29T13:07:37;26.10;99.60
7174;DHT22;3628;48.654;8.932;2023-07-29T13:10:03;25.90;99.60
7174;DHT22;3628;48.654;8.932;2023-07-29T13:12:29;25.90;99.90
7174;DHT22;3628;48.654;8.932;2023-07-29T13:14:54;26.00;99.90
7174;DHT22;3628;48.654;8.932;2023-07-29T13:17:21;26.00;99.20
7174;DHT22;3628;48.654;8.932;2023-07-29T13:19:47;25.90;99.40
7174;DHT22;3628;48.654;8.932;2023-07-29T13:22:13;25.80;99.60
7174;DHT22;3628;48.654;8.932;2023-07-29T13:24:38;25.90;99.90
7174;DHT22;3628;48.654;8.932;2023-07-29T13:27:04;26.10;99.90
7174;DHT22;3628;48.654;8.932;2023-07-29T13:29:30;26.10;98.60
7174;DHT22;3628;48.654;8.932;2023-07-29T13:31:55;26.20;99.90
7174;DHT22;3628;48.654;8.932;2023-07-29T13:34:21;26.40;98.80
7174;DHT22;3628;48.654;8.932;2023-07-29T13:36:47;26.50;99.90
7174;DHT22;3628;48.654;8.932;2023-07-29T13:39:12;26.50;98.10
7174;DHT22;3628;48.654;8.932;2023-07-29T13:41:38;26.60;98.90
7174;DHT22;3628;48.654;8.932;2023-07-29T13:44:03;26.60;98.20
7174;DHT22;3628;48.654;8.932;2023-07-29T13:46:29;26.60;98.40
7174;DHT22;3628;48.654;8.932;2023-07-29T13:48:55;26.50;97.60
7174;DHT22;3628;48.654;8.932;2023-07-29T13:51:20;26.40;97.40
7174;DHT22;3628;48.654;8.932;2023-07-29T13:53:46;26.50;98.40
7174;DHT22;3628;48.654;8.932;2023-07-29T13:56:11;26.40;98.50
7174;DHT22;3628;48.654;8.932;2023-07-29T13:58:37;26.20;96.80
7174;DHT22;3628;48.654;8.932;2023-07-29T14:01:02;25.90;97.40
7174;DHT22;3628;48.654;8.932;2023-07-29T14:03:28;25.80;97.70
7174;DHT22;3628;48.654;8.932;2023-07-29T14:05:53;25.60;98.00
7174;DHT22;3628;48.654;8.932;2023-07-29T14:08:19;25.60;98.90
7174;DHT22;3628;48.654;8.932;2023-07-29T14:10:44;25.60;98.40
7174;DHT22;3628;48.654;8.932;2023-07-29T14:13:10;25.60;99.00
7174;DHT22;3628;48.654;8.932;2023-07-29T14:15:36;25.70;99.20
7174;DHT22;3628;48.654;8.932;2023-07-29T14:18:02;25.80;99.90
7174;DHT22;3628;48.654;8.932;2023-07-29T14:20:28;25.90;97.80
7174;DHT22;3628;48.654;8.932;2023-07-29T14:22:53;25.90;98.20
7174;DHT22;3628;48.654;8.932;2023-07-29T14:25:19;26.00;98.30
7174;DHT22;3628;48.654;8.932;2023-07-29T14:27:44;26.00;97.50
7174;DHT22;3628;48.654;8.932;2023-07-29T14:30:10;25.90;97.90
7174;DHT22;3628;48.654;8.932;2023-07-29T14:32:36;25.80;96.80
7174;DHT22;3628;48.654;8.932;2023-07-29T14:35:03;25.80;97.70
7174;DHT22;3628;48.654;8.932;2023-07-29T14:37:32;25.90;98.30
7174;DHT22;3628;48.654;8.932;2023-07-29T14:40:01;25.80;98.00
7174;DHT22;3628;48.654;8.932;2023-07-29T14:42:26;25.70;98.00
7174;DHT22;3628;48.654;8.932;2023-07-29T14:44:52;25.70;98.50
7174;DHT22;3628;48.654;8.932;2023-07-29T14:47:18;25.60;98.50
7174;DHT22;3628;48.654;8.932;2023-07-29T14:49:44;25.70;98.20
7174;DHT22;3628;48.654;8.932;2023-07-29T14:52:10;25.70;97.70
7174;DHT22;3628;48.654;8.932;2023-07-29T14:54:36;25.80;97.90
7174;DHT22;3628;48.654;8.932;2023-07-29T14:57:02;25.80;97.90
7174;DHT22;3628;48.654;8.932;2023-07-29T14:59:27;25.80;97.70
7174;DHT22;3628;48.654;8.932;2023-07-29T15:01:53;25.70;98.00
7174;DHT22;3628;48.654;8.932;2023-07-29T15:04:18;25.60;98.00
7174;DHT22;3628;48.654;8.932;2023-07-29T15:06:44;25.50;98.20
7174;DHT22;3628;48.654;8.932;2023-07-29T15:09:09;25.60;98.40
7174;DHT22;3628;48.654;8.932;2023-07-29T15:11:35;25.50;99.00
7174;DHT22;3628;48.654;8.932;2023-07-29T15:14:02;25.40;98.70
7174;DHT22;3628;48.654;8.932;2023-07-29T15:16:29;25.40;98.30
7174;DHT22;3628;48.654;8.932;2023-07-29T15:18:54;25.30;98.30
7174;DHT22;3628;48.654;8.932;2023-07-29T15:21:20;25.30;98.80
7174;DHT22;3628;48.654;8.932;2023-07-29T15:23:46;25.20;99.50
7174;DHT22;3628;48.654;8.932;2023-07-29T15:26:12;25.20;99.90
7174;DHT22;3628;48.654;8.932;2023-07-29T15:28:37;25.20;99.90
7174;DHT22;3628;48.654;8.932;2023-07-29T15:31:03;25.30;99.90
7174;DHT22;3628;48.654;8.932;2023-07-29T15:33:29;25.30;99.80
7174;DHT22;3628;48.654;8.932;2023-07-29T15:35:54;25.30;99.90
7174;DHT22;3628;48.654;8.932;2023-07-29T15:38:20;25.50;99.90
7174;DHT22;3628;48.654;8.932;2023-07-29T15:40:45;25.70;99.90
7174;DHT22;3628;48.654;8.932;2023-07-29T15:43:14;25.60;98.90
7174;DHT22;3628;48.654;8.932;2023-07-29T15:45:39;25.50;99.80
7174;DHT22;3628;48.654;8.932;2023-07-29T15:48:05;25.50;99.90
7174;DHT22;3628;48.654;8.932;2023-07-29T15:50:30;25.40;99.80
7174;DHT22;3628;48.654;8.932;2023-07-29T15:52:56;25.50;99.90
7174;DHT22;3628;48.654;8.932;2023-07-29T15:55:22;25.50;99.60
7174;DHT22;3628;48.654;8.932;2023-07-29T15:57:47;25.60;99.90
7174;DHT22;3628;48.654;8.932;2023-07-29T16:00:13;25.60;99.80
7174;DHT22;3628;48.654;8.932;2023-07-29T16:02:39;25.50;99.90
7174;DHT22;3628;48.654;8.932;2023-07-29T16:05:08;25.40;99.90
7174;DHT22;3628;48.654;8.932;2023-07-29T16:07:33;25.30;99.90
7174;DHT22;3628;48.654;8.932;2023-07-29T16:09:59;25.10;99.90
7174;DHT22;3628;48.654;8.932;2023-07-29T16:12:25;25.00;99.90